sensor_id;sensor_type;location;lat;lon;timestamp;pressure;altitude;pressure_sealevel;temperature;humidity
4814;BME280;15375;48.540;9.268;2023-07-13T00:01:30;97329.31;;;21.27;85.15
4814;BME280;15375;48.540;9.268;2023-07-13T00:03:57;97335.22;;;21.14;83.78
4814;BME280;15375;48.540;9.268;2023-07-13T00:06:22;97292.53;;;20.66;84.61
4814;BME280;15375;48.540;9.268;2023-07-13T00:08:48;97327.53;;;20.83;84.70
4814;BME280;15375;48.540;9.268;2023-07-13T00:11:15;97319.91;;;20.98;86.62
4814;BME280;15375;48.540;9.268;2023-07-13T00:13:41;97311.31;;;20.96;84.17
4814;BME280;15375;48.540;9.268;2023-07-13T00:16:08;97313.78;;;20.94;81.86
4814;BME280;15375;48.540;9.268;2023-07-13T00:18:34;97313.66;;;20.83;81.81
4814;BME280;15375;48.540;9.268;2023-07-13T00:20:59;97271.25;;;20.37;81.16
4814;BME280;15375;48.540;9.268;2023-07-13T00:23:34;97337.94;;;20.88;82.48
4814;BME280;15375;48.540;9.268;2023-07-13T00:26:01;97317.69;;;20.82;83.20
4814;BME280;15375;48.540;9.268;2023-07-13T00:28:27;97309.53;;;20.73;83.73
4814;BME280;15375;48.540;9.268;2023-07-13T00:30:52;97316.44;;;20.83;83.43
4814;BME280;15375;48.540;9.268;2023-07-13T00:33:19;97323.13;;;20.97;85.41
4814;BME280;15375;48.540;9.268;2023-07-13T00:35:44;97312.13;;;20.82;84.47
4814;BME280;15375;48.540;9.268;2023-07-13T00:38:10;97318.09;;;20.75;82.46
4814;BME280;15375;48.540;9.268;2023-07-13T00:40:35;97314.63;;;20.80;83.77
4814;BME280;15375;48.540;9.268;2023-07-13T00:43:00;97302.38;;;20.67;82.04
4814;BME280;15375;48.540;9.268;2023-07-13T00:47:51;97340.19;;;20.50;82.86
4814;BME280;15375;48.540;9.268;2023-07-13T00:50:18;97309.97;;;20.31;83.02
4814;BME280;15375;48.540;9.268;2023-07-13T00:52:46;97337.72;;;20.52;86.23
4814;BME280;15375;48.540;9.268;2023-07-13T00:55:14;97312.13;;;20.42;85.38
4814;BME280;15375;48.540;9.268;2023-07-13T00:57:40;97298.50;;;20.39;85.64
4814;BME280;15375;48.540;9.268;2023-07-13T01:00:07;97305.88;;;20.27;83.36
4814;BME280;15375;48.540;9.268;2023-07-13T01:02:35;97350.13;;;20.56;85.69
4814;BME280;15375;48.540;9.268;2023-07-13T01:05:12;97320.66;;;20.39;86.07
4814;BME280;15375;48.540;9.268;2023-07-13T01:07:39;97353.72;;;20.62;84.73
4814;BME280;15375;48.540;9.268;2023-07-13T01:10:06;97368.34;;;20.83;87.23
4814;BME280;15375;48.540;9.268;2023-07-13T01:12:32;97339.84;;;20.82;84.89
4814;BME280;15375;48.540;9.268;2023-07-13T01:14:58;97358.44;;;20.96;83.31
4814;BME280;15375;48.540;9.268;2023-07-13T01:17:25;97347.34;;;20.76;83.59
4814;BME280;15375;48.540;9.268;2023-07-13T01:19:51;97357.47;;;20.59;83.62
4814;BME280;15375;48.540;9.268;2023-07-13T01:22:18;97325.91;;;20.37;85.50
4814;BME280;15375;48.540;9.268;2023-07-13T01:24:46;97349.41;;;20.41;84.66
4814;BME280;15375;48.540;9.268;2023-07-13T01:27:15;97359.16;;;20.37;87.08
4814;BME280;15375;48.540;9.268;2023-07-13T01:29:42;97351.91;;;20.39;87.05
4814;BME280;15375;48.540;9.268;2023-07-13T01:32:15;97352.03;;;20.50;87.72
4814;BME280;15375;48.540;9.268;2023-07-13T01:34:41;97331.97;;;20.75;86.64
4814;BME280;15375;48.540;9.268;2023-07-13T01:37:08;97334.66;;;20.70;89.09
4814;BME280;15375;48.540;9.268;2023-07-13T01:39:34;97338.13;;;20.65;86.61
4814;BME280;15375;48.540;9.268;2023-07-13T01:42:00;97348.66;;;20.81;87.04
4814;BME280;15375;48.540;9.268;2023-07-13T01:44:26;97333.50;;;20.56;86.26
4814;BME280;15375;48.540;9.268;2023-07-13T01:46:51;97354.63;;;20.74;88.25
4814;BME280;15375;48.540;9.268;2023-07-13T01:49:17;97338.47;;;20.72;86.94
4814;BME280;15375;48.540;9.268;2023-07-13T01:51:42;97347.91;;;20.80;87.18
4814;BME280;15375;48.540;9.268;2023-07-13T01:54:07;97328.34;;;20.69;88.50
4814;BME280;15375;48.540;9.268;2023-07-13T01:56:33;97369.53;;;20.96;86.26
4814;BME280;15375;48.540;9.268;2023-07-13T01:58:58;97367.56;;;21.02;87.94
4814;BME280;15375;48.540;9.268;2023-07-13T02:01:23;97356.63;;;20.93;88.88
4814;BME280;15375;48.540;9.268;2023-07-13T02:03:49;97354.28;;;20.66;88.21
4814;BME280;15375;48.540;9.268;2023-07-13T02:06:14;97371.88;;;20.63;88.10
4814;BME280;15375;48.540;9.268;2023-07-13T02:08:40;97370.66;;;20.50;90.83
4814;BME280;15375;48.540;9.268;2023-07-13T02:11:07;97325.38;;;20.18;91.08
4814;BME280;15375;48.540;9.268;2023-07-13T02:13:32;97326.13;;;20.33;89.34
4814;BME280;15375;48.540;9.268;2023-07-13T02:15:57;97349.91;;;20.60;88.52
4814;BME280;15375;48.540;9.268;2023-07-13T02:18:23;97338.47;;;20.52;88.47
4814;BME280;15375;48.540;9.268;2023-07-13T02:20:48;97320.22;;;20.11;86.20
4814;BME280;15375;48.540;9.268;2023-07-13T02:23:14;97349.44;;;20.12;86.60
4814;BME280;15375;48.540;9.268;2023-07-13T02:25:39;97362.59;;;20.17;86.47
4814;BME280;15375;48.540;9.268;2023-07-13T02:28:04;97362.25;;;20.24;86.50
4814;BME280;15375;48.540;9.268;2023-07-13T02:30:30;97343.88;;;20.12;85.96
4814;BME280;15375;48.540;9.268;2023-07-13T02:32:56;97367.56;;;20.27;86.66
4814;BME280;15375;48.540;9.268;2023-07-13T02:35:22;97353.84;;;20.04;83.91
4814;BME280;15375;48.540;9.268;2023-07-13T02:37:48;97364.72;;;20.07;88.34
4814;BME280;15375;48.540;9.268;2023-07-13T02:40:14;97367.66;;;20.18;88.29
4814;BME280;15375;48.540;9.268;2023-07-13T02:42:39;97369.97;;;20.05;87.04
4814;BME280;15375;48.540;9.268;2023-07-13T02:45:06;97338.22;;;19.71;87.69
4814;BME280;15375;48.540;9.268;2023-07-13T02:47:32;97373.34;;;19.65;88.65
4814;BME280;15375;48.540;9.268;2023-07-13T02:49:58;97363.88;;;19.43;91.40
4814;BME280;15375;48.540;9.268;2023-07-13T02:52:24;97365.13;;;19.56;92.18
4814;BME280;15375;48.540;9.268;2023-07-13T02:54:49;97358.16;;;19.46;90.29
4814;BME280;15375;48.540;9.268;2023-07-13T02:57:15;97343.72;;;19.28;90.32
4814;BME280;15375;48.540;9.268;2023-07-13T02:59:40;97355.88;;;19.21;90.82
4814;BME280;15375;48.540;9.268;2023-07-13T03:02:05;97357.25;;;19.26;92.90
4814;BME280;15375;48.540;9.268;2023-07-13T03:04:31;97367.69;;;19.45;92.62
4814;BME280;15375;48.540;9.268;2023-07-13T03:06:56;97353.34;;;19.32;90.69
4814;BME280;15375;48.540;9.268;2023-07-13T03:09:24;97361.72;;;18.85;92.68
4814;BME280;15375;48.540;9.268;2023-07-13T03:11:52;97371.31;;;18.75;93.98
4814;BME280;15375;48.540;9.268;2023-07-13T03:14:17;97356.72;;;18.74;93.55
4814;BME280;15375;48.540;9.268;2023-07-13T03:16:43;97361.97;;;18.72;93.23
4814;BME280;15375;48.540;9.268;2023-07-13T03:19:08;97368.94;;;18.82;92.40
4814;BME280;15375;48.540;9.268;2023-07-13T03:21:34;97362.41;;;18.71;92.73
4814;BME280;15375;48.540;9.268;2023-07-13T03:23:59;97374.59;;;18.64;95.52
4814;BME280;15375;48.540;9.268;2023-07-13T03:26:25;97364.19;;;18.59;94.16
4814;BME280;15375;48.540;9.268;2023-07-13T03:28:50;97381.75;;;18.71;94.86
4814;BME280;15375;48.540;9.268;2023-07-13T03:31:19;97351.31;;;18.80;93.72
4814;BME280;15375;48.540;9.268;2023-07-13T03:33:45;97382.06;;;19.11;93.48
4814;BME280;15375;48.540;9.268;2023-07-13T03:36:15;97308.53;;;18.75;90.64
4814;BME280;15375;48.540;9.268;2023-07-13T03:38:45;97366.16;;;19.06;89.34
4814;BME280;15375;48.540;9.268;2023-07-13T03:41:11;97357.00;;;19.00;92.65
4814;BME280;15375;48.540;9.268;2023-07-13T03:43:36;97377.72;;;19.19;90.26
4814;BME280;15375;48.540;9.268;2023-07-13T03:46:02;97365.06;;;19.27;89.41
4814;BME280;15375;48.540;9.268;2023-07-13T03:48:27;97347.25;;;19.28;88.85
4814;BME280;15375;48.540;9.268;2023-07-13T03:50:52;97382.97;;;19.55;90.30
4814;BME280;15375;48.540;9.268;2023-07-13T03:53:18;97368.09;;;19.53;89.17
4814;BME280;15375;48.540;9.268;2023-07-13T03:55:44;97349.56;;;19.44;89.34
4814;BME280;15375;48.540;9.268;2023-07-13T03:58:33;97379.59;;;19.51;88.45
4814;BME280;15375;48.540;9.268;2023-07-13T04:00:59;97387.84;;;19.60;90.27
4814;BME280;15375;48.540;9.268;2023-07-13T04:03:26;97380.88;;;19.50;89.19
4814;BME280;15375;48.540;9.268;2023-07-13T04:05:54;97378.13;;;19.27;89.65
4814;BME280;15375;48.540;9.268;2023-07-13T04:08:19;97398.31;;;19.18;89.97
4814;BME280;15375;48.540;9.268;2023-07-13T04:10:44;97408.34;;;18.92;92.96
4814;BME280;15375;48.540;9.268;2023-07-13T04:13:09;97394.94;;;18.99;95.11
4814;BME280;15375;48.540;9.268;2023-07-13T04:15:35;97416.72;;;19.21;93.49
4814;BME280;15375;48.540;9.268;2023-07-13T04:18:00;97399.50;;;18.79;94.55
4814;BME280;15375;48.540;9.268;2023-07-13T04:20:26;97429.22;;;18.93;96.09
4814;BME280;15375;48.540;9.268;2023-07-13T04:22:52;97414.75;;;19.36;96.55
4814;BME280;15375;48.540;9.268;2023-07-13T04:25:18;97411.88;;;19.54;92.46
4814;BME280;15375;48.540;9.268;2023-07-13T04:27:44;97407.88;;;19.55;91.36
4814;BME280;15375;48.540;9.268;2023-07-13T04:30:09;97414.25;;;19.61;88.74
4814;BME280;15375;48.540;9.268;2023-07-13T04:32:35;97421.31;;;19.24;91.72
4814;BME280;15375;48.540;9.268;2023-07-13T04:35:01;97392.56;;;18.83;93.92
4814;BME280;15375;48.540;9.268;2023-07-13T04:37:26;97392.09;;;18.61;94.39
4814;BME280;15375;48.540;9.268;2023-07-13T04:39:52;97401.31;;;18.58;97.58
4814;BME280;15375;48.540;9.268;2023-07-13T04:42:18;97432.63;;;18.88;96.31
4814;BME280;15375;48.540;9.268;2023-07-13T04:44:51;97416.88;;;19.03;97.89
4814;BME280;15375;48.540;9.268;2023-07-13T04:47:17;97428.84;;;19.47;92.33
4814;BME280;15375;48.540;9.268;2023-07-13T04:49:43;97397.88;;;18.72;94.90
4814;BME280;15375;48.540;9.268;2023-07-13T04:52:09;97431.03;;;18.96;95.88
4814;BME280;15375;48.540;9.268;2023-07-13T04:54:34;97413.94;;;18.83;96.22
4814;BME280;15375;48.540;9.268;2023-07-13T04:57:00;97435.59;;;19.46;96.63
4814;BME280;15375;48.540;9.268;2023-07-13T04:59:26;97421.44;;;19.83;91.86
4814;BME280;15375;48.540;9.268;2023-07-13T05:01:52;97433.56;;;20.00;90.37
4814;BME280;15375;48.540;9.268;2023-07-13T05:04:18;97399.28;;;20.12;87.52
4814;BME280;15375;48.540;9.268;2023-07-13T05:06:43;97428.38;;;20.22;88.45
4814;BME280;15375;48.540;9.268;2023-07-13T05:09:08;97425.25;;;20.14;88.48
4814;BME280;15375;48.540;9.268;2023-07-13T05:11:34;97422.00;;;19.87;86.45
4814;BME280;15375;48.540;9.268;2023-07-13T05:13:59;97416.00;;;19.35;89.08
4814;BME280;15375;48.540;9.268;2023-07-13T05:16:27;97406.88;;;18.82;91.11
4814;BME280;15375;48.540;9.268;2023-07-13T05:18:53;97440.28;;;18.93;94.20
4814;BME280;15375;48.540;9.268;2023-07-13T05:21:18;97443.97;;;19.13;93.37
4814;BME280;15375;48.540;9.268;2023-07-13T05:23:44;97454.50;;;19.24;91.25
4814;BME280;15375;48.540;9.268;2023-07-13T05:26:10;97415.16;;;19.05;93.68
4814;BME280;15375;48.540;9.268;2023-07-13T05:28:36;97469.50;;;19.32;94.87
4814;BME280;15375;48.540;9.268;2023-07-13T05:31:02;97447.09;;;19.30;93.59
4814;BME280;15375;48.540;9.268;2023-07-13T05:33:27;97465.44;;;19.42;92.44
4814;BME280;15375;48.540;9.268;2023-07-13T05:35:53;97468.72;;;19.55;90.69
4814;BME280;15375;48.540;9.268;2023-07-13T05:38:19;97470.06;;;19.60;92.05
4814;BME280;15375;48.540;9.268;2023-07-13T05:40:45;97422.19;;;19.68;88.49
4814;BME280;15375;48.540;9.268;2023-07-13T05:43:11;97469.00;;;20.54;86.73
4814;BME280;15375;48.540;9.268;2023-07-13T05:45:36;97453.81;;;21.85;78.71
4814;BME280;15375;48.540;9.268;2023-07-13T05:48:02;97471.44;;;24.14;67.76
4814;BME280;15375;48.540;9.268;2023-07-13T05:50:27;97473.75;;;22.66;72.26
4814;BME280;15375;48.540;9.268;2023-07-13T05:52:53;97468.69;;;22.08;74.02
4814;BME280;15375;48.540;9.268;2023-07-13T05:55:19;97480.56;;;22.08;76.71
4814;BME280;15375;48.540;9.268;2023-07-13T05:57:44;97468.34;;;22.26;76.59
4814;BME280;15375;48.540;9.268;2023-07-13T06:00:10;97465.72;;;23.70;67.27
4814;BME280;15375;48.540;9.268;2023-07-13T06:02:36;97449.44;;;25.51;62.08
4814;BME280;15375;48.540;9.268;2023-07-13T06:05:01;97444.56;;;26.98;55.24
4814;BME280;15375;48.540;9.268;2023-07-13T06:07:26;97474.56;;;27.89;49.96
4814;BME280;15375;48.540;9.268;2023-07-13T06:09:52;97475.94;;;27.40;51.79
4814;BME280;15375;48.540;9.268;2023-07-13T06:12:17;97493.84;;;27.31;52.32
4814;BME280;15375;48.540;9.268;2023-07-13T06:14:42;97489.03;;;27.93;49.51
4814;BME280;15375;48.540;9.268;2023-07-13T06:17:08;97454.50;;;29.25;45.82
4814;BME280;15375;48.540;9.268;2023-07-13T06:19:34;97497.88;;;28.85;47.70
4814;BME280;15375;48.540;9.268;2023-07-13T06:21:59;97486.41;;;28.19;44.66
4814;BME280;15375;48.540;9.268;2023-07-13T06:24:25;97505.75;;;28.55;46.89
4814;BME280;15375;48.540;9.268;2023-07-13T06:26:50;97498.06;;;30.72;42.39
4814;BME280;15375;48.540;9.268;2023-07-13T06:29:16;97465.56;;;31.13;40.89
4814;BME280;15375;48.540;9.268;2023-07-13T06:31:41;97486.25;;;30.94;40.75
4814;BME280;15375;48.540;9.268;2023-07-13T06:34:07;97503.22;;;31.87;39.44
4814;BME280;15375;48.540;9.268;2023-07-13T06:36:32;97512.72;;;33.23;37.41
4814;BME280;15375;48.540;9.268;2023-07-13T06:38:58;97505.56;;;32.03;39.30
4814;BME280;15375;48.540;9.268;2023-07-13T06:41:24;97515.91;;;32.59;38.41
4814;BME280;15375;48.540;9.268;2023-07-13T06:43:53;97491.91;;;33.74;36.00
4814;BME280;15375;48.540;9.268;2023-07-13T06:46:23;97490.53;;;33.90;35.63
4814;BME280;15375;48.540;9.268;2023-07-13T06:48:48;97505.53;;;33.53;35.27
4814;BME280;15375;48.540;9.268;2023-07-13T06:51:14;97515.34;;;32.76;35.72
4814;BME280;15375;48.540;9.268;2023-07-13T06:53:39;97487.09;;;33.21;36.12
4814;BME280;15375;48.540;9.268;2023-07-13T06:56:05;97529.50;;;32.17;36.88
4814;BME280;15375;48.540;9.268;2023-07-13T06:58:30;97493.63;;;29.49;37.84
4814;BME280;15375;48.540;9.268;2023-07-13T07:00:56;97494.31;;;27.35;43.15
4814;BME280;15375;48.540;9.268;2023-07-13T07:03:21;97513.03;;;27.89;43.30
4814;BME280;15375;48.540;9.268;2023-07-13T07:05:47;97514.81;;;27.49;42.01
4814;BME280;15375;48.540;9.268;2023-07-13T07:08:12;97526.84;;;27.87;43.24
4814;BME280;15375;48.540;9.268;2023-07-13T07:10:37;97502.19;;;27.79;43.83
4814;BME280;15375;48.540;9.268;2023-07-13T07:13:03;97522.19;;;28.45;41.20
4814;BME280;15375;48.540;9.268;2023-07-13T07:15:29;97516.84;;;28.79;40.14
4814;BME280;15375;48.540;9.268;2023-07-13T07:17:55;97491.47;;;28.02;42.50
4814;BME280;15375;48.540;9.268;2023-07-13T07:20:20;97523.50;;;27.88;43.73
4814;BME280;15375;48.540;9.268;2023-07-13T07:22:46;97502.75;;;28.15;40.11
4814;BME280;15375;48.540;9.268;2023-07-13T07:25:12;97484.50;;;28.59;39.04
4814;BME280;15375;48.540;9.268;2023-07-13T07:27:38;97520.63;;;28.31;42.54
4814;BME280;15375;48.540;9.268;2023-07-13T07:30:03;97528.66;;;28.40;42.13
4814;BME280;15375;48.540;9.268;2023-07-13T07:32:30;97488.91;;;28.55;41.66
4814;BME280;15375;48.540;9.268;2023-07-13T07:34:59;97506.41;;;27.49;43.94
4814;BME280;15375;48.540;9.268;2023-07-13T07:37:24;97512.13;;;27.80;42.07
4814;BME280;15375;48.540;9.268;2023-07-13T07:39:50;97512.50;;;28.46;38.58
4814;BME280;15375;48.540;9.268;2023-07-13T07:42:15;97510.06;;;28.56;40.20
4814;BME280;15375;48.540;9.268;2023-07-13T07:44:41;97497.91;;;28.34;39.95
4814;BME280;15375;48.540;9.268;2023-07-13T07:47:07;97528.97;;;28.36;41.10
4814;BME280;15375;48.540;9.268;2023-07-13T07:49:33;97482.03;;;28.00;40.79
4814;BME280;15375;48.540;9.268;2023-07-13T07:51:58;97515.03;;;26.67;42.85
4814;BME280;15375;48.540;9.268;2023-07-13T07:54:23;97508.13;;;25.97;43.15
4814;BME280;15375;48.540;9.268;2023-07-13T07:56:48;97511.81;;;25.70;42.80
4814;BME280;15375;48.540;9.268;2023-07-13T07:59:14;97523.56;;;26.10;44.75
4814;BME280;15375;48.540;9.268;2023-07-13T08:01:39;97524.03;;;26.54;43.69
4814;BME280;15375;48.540;9.268;2023-07-13T08:04:05;97511.22;;;26.35;44.07
4814;BME280;15375;48.540;9.268;2023-07-13T08:06:32;97526.78;;;26.95;43.09
4814;BME280;15375;48.540;9.268;2023-07-13T08:08:59;97499.22;;;26.75;44.65
4814;BME280;15375;48.540;9.268;2023-07-13T08:11:24;97484.75;;;27.01;43.12
4814;BME280;15375;48.540;9.268;2023-07-13T08:13:50;97519.50;;;27.41;42.79
4814;BME280;15375;48.540;9.268;2023-07-13T08:16:16;97526.97;;;27.75;41.99
4814;BME280;15375;48.540;9.268;2023-07-13T08:18:42;97490.81;;;28.46;38.30
4814;BME280;15375;48.540;9.268;2023-07-13T08:21:08;97503.25;;;28.83;37.92
4814;BME280;15375;48.540;9.268;2023-07-13T08:23:35;97522.84;;;28.01;38.82
4814;BME280;15375;48.540;9.268;2023-07-13T08:26:01;97489.59;;;27.00;38.65
4814;BME280;15375;48.540;9.268;2023-07-13T08:28:27;97479.47;;;25.86;40.45
4814;BME280;15375;48.540;9.268;2023-07-13T08:30:53;97509.41;;;25.91;41.46
4814;BME280;15375;48.540;9.268;2023-07-13T08:33:19;97508.91;;;26.39;41.63
4814;BME280;15375;48.540;9.268;2023-07-13T08:35:46;97505.69;;;24.87;43.17
4814;BME280;15375;48.540;9.268;2023-07-13T08:38:12;97541.19;;;26.40;42.42
4814;BME280;15375;48.540;9.268;2023-07-13T08:40:38;97498.75;;;27.01;42.26
4814;BME280;15375;48.540;9.268;2023-07-13T08:43:04;97519.59;;;24.98;42.49
4814;BME280;15375;48.540;9.268;2023-07-13T08:45:37;97512.75;;;25.84;42.21
4814;BME280;15375;48.540;9.268;2023-07-13T08:48:19;97521.91;;;25.84;41.81
4814;BME280;15375;48.540;9.268;2023-07-13T08:50:51;97503.47;;;27.11;41.00
4814;BME280;15375;48.540;9.268;2023-07-13T08:53:23;97509.59;;;26.10;41.40
4814;BME280;15375;48.540;9.268;2023-07-13T08:55:52;97533.59;;;27.54;41.52
4814;BME280;15375;48.540;9.268;2023-07-13T08:58:22;97499.34;;;28.22;40.12
4814;BME280;15375;48.540;9.268;2023-07-13T09:03:46;97534.66;;;28.50;38.92
4814;BME280;15375;48.540;9.268;2023-07-13T09:06:13;97510.06;;;28.87;38.96
4814;BME280;15375;48.540;9.268;2023-07-13T09:16:23;97524.38;;;26.81;39.93
4814;BME280;15375;48.540;9.268;2023-07-13T09:18:51;97494.28;;;26.22;41.00
4814;BME280;15375;48.540;9.268;2023-07-13T09:21:23;97515.84;;;26.27;40.95
4814;BME280;15375;48.540;9.268;2023-07-13T09:23:53;97529.25;;;27.04;40.84
4814;BME280;15375;48.540;9.268;2023-07-13T09:26:22;97527.69;;;25.97;41.62
4814;BME280;15375;48.540;9.268;2023-07-13T09:28:56;97519.56;;;25.99;42.78
4814;BME280;15375;48.540;9.268;2023-07-13T09:31:34;97533.41;;;27.70;41.44
4814;BME280;15375;48.540;9.268;2023-07-13T09:34:03;97527.72;;;28.19;40.34
4814;BME280;15375;48.540;9.268;2023-07-13T09:36:31;97507.59;;;27.96;38.32
4814;BME280;15375;48.540;9.268;2023-07-13T09:39:20;97523.72;;;29.09;37.27
4814;BME280;15375;48.540;9.268;2023-07-13T09:41:57;97507.19;;;27.19;37.86
4814;BME280;15375;48.540;9.268;2023-07-13T09:44:31;97502.03;;;27.53;40.28
4814;BME280;15375;48.540;9.268;2023-07-13T09:46:58;97499.69;;;27.95;40.39
4814;BME280;15375;48.540;9.268;2023-07-13T09:49:34;97523.34;;;28.87;38.43
4814;BME280;15375;48.540;9.268;2023-07-13T09:52:06;97503.25;;;29.28;38.86
4814;BME280;15375;48.540;9.268;2023-07-13T09:54:36;97514.16;;;29.70;37.41
4814;BME280;15375;48.540;9.268;2023-07-13T09:57:08;97483.56;;;29.41;35.96
4814;BME280;15375;48.540;9.268;2023-07-13T09:59:48;97520.66;;;29.65;36.26
4814;BME280;15375;48.540;9.268;2023-07-13T10:02:24;97500.00;;;29.63;35.87
4814;BME280;15375;48.540;9.268;2023-07-13T10:05:06;97514.09;;;29.05;35.11
4814;BME280;15375;48.540;9.268;2023-07-13T10:07:38;97523.06;;;28.03;34.87
4814;BME280;15375;48.540;9.268;2023-07-13T10:10:14;97503.50;;;27.78;35.95
4814;BME280;15375;48.540;9.268;2023-07-13T10:12:40;97532.53;;;27.08;37.11
4814;BME280;15375;48.540;9.268;2023-07-13T10:15:14;97514.31;;;25.79;38.83
4814;BME280;15375;48.540;9.268;2023-07-13T10:17:40;97509.06;;;27.11;39.20
4814;BME280;15375;48.540;9.268;2023-07-13T10:20:06;97494.75;;;28.57;37.74
4814;BME280;15375;48.540;9.268;2023-07-13T10:22:54;97521.31;;;28.87;37.07
4814;BME280;15375;48.540;9.268;2023-07-13T10:25:28;97502.69;;;28.71;36.53
4814;BME280;15375;48.540;9.268;2023-07-13T10:28:06;97509.63;;;28.33;36.25
4814;BME280;15375;48.540;9.268;2023-07-13T10:30:40;97503.66;;;27.86;36.62
4814;BME280;15375;48.540;9.268;2023-07-13T10:33:10;97532.56;;;28.50;38.06
4814;BME280;15375;48.540;9.268;2023-07-13T10:35:38;97519.31;;;28.51;36.70
4814;BME280;15375;48.540;9.268;2023-07-13T10:38:11;97519.13;;;28.11;36.29
4814;BME280;15375;48.540;9.268;2023-07-13T10:43:35;97510.09;;;28.37;35.83
4814;BME280;15375;48.540;9.268;2023-07-13T10:46:06;97502.59;;;28.26;37.55
4814;BME280;15375;48.540;9.268;2023-07-13T10:48:34;97511.47;;;28.30;38.35
4814;BME280;15375;48.540;9.268;2023-07-13T10:51:04;97501.66;;;28.87;37.10
4814;BME280;15375;48.540;9.268;2023-07-13T10:53:36;97510.81;;;28.24;38.06
4814;BME280;15375;48.540;9.268;2023-07-13T10:56:02;97507.44;;;28.44;37.99
4814;BME280;15375;48.540;9.268;2023-07-13T10:58:41;97510.69;;;28.80;37.82
4814;BME280;15375;48.540;9.268;2023-07-13T11:03:47;97503.09;;;29.07;37.33
4814;BME280;15375;48.540;9.268;2023-07-13T11:18:51;97456.28;;;28.83;34.35
4814;BME280;15375;48.540;9.268;2023-07-13T11:21:19;97451.66;;;28.99;37.29
4814;BME280;15375;48.540;9.268;2023-07-13T11:23:53;97490.78;;;29.76;34.16
4814;BME280;15375;48.540;9.268;2023-07-13T11:31:43;97471.59;;;28.19;34.69
4814;BME280;15375;48.540;9.268;2023-07-13T11:34:13;97453.50;;;28.52;36.39
4814;BME280;15375;48.540;9.268;2023-07-13T11:36:44;97460.16;;;28.48;36.40
4814;BME280;15375;48.540;9.268;2023-07-13T11:39:19;97477.25;;;28.95;34.96
4814;BME280;15375;48.540;9.268;2023-07-13T11:41:52;97481.91;;;29.06;33.86
4814;BME280;15375;48.540;9.268;2023-07-13T11:44:22;97463.50;;;27.97;37.21
4814;BME280;15375;48.540;9.268;2023-07-13T11:46:53;97476.59;;;28.58;35.87
4814;BME280;15375;48.540;9.268;2023-07-13T11:49:21;97471.97;;;28.92;34.52
4814;BME280;15375;48.540;9.268;2023-07-13T11:51:47;97472.06;;;28.55;36.92
4814;BME280;15375;48.540;9.268;2023-07-13T11:54:46;97456.63;;;29.06;35.94
4814;BME280;15375;48.540;9.268;2023-07-13T11:57:28;97466.25;;;29.10;35.80
4814;BME280;15375;48.540;9.268;2023-07-13T11:59:55;97453.75;;;29.25;34.14
4814;BME280;15375;48.540;9.268;2023-07-13T12:02:36;97463.53;;;28.60;34.71
4814;BME280;15375;48.540;9.268;2023-07-13T12:05:04;97451.44;;;28.84;37.91
4814;BME280;15375;48.540;9.268;2023-07-13T12:07:32;97430.16;;;28.12;35.08
4814;BME280;15375;48.540;9.268;2023-07-13T12:10:03;97488.84;;;28.41;38.63
4814;BME280;15375;48.540;9.268;2023-07-13T12:12:29;97468.88;;;28.32;36.98
4814;BME280;15375;48.540;9.268;2023-07-13T12:14:55;97458.66;;;28.47;34.28
4814;BME280;15375;48.540;9.268;2023-07-13T12:17:23;97466.72;;;29.28;36.62
4814;BME280;15375;48.540;9.268;2023-07-13T12:19:51;97469.41;;;29.59;36.62
4814;BME280;15375;48.540;9.268;2023-07-13T12:22:19;97449.97;;;29.35;36.78
4814;BME280;15375;48.540;9.268;2023-07-13T12:24:46;97445.50;;;29.14;35.32
4814;BME280;15375;48.540;9.268;2023-07-13T12:27:22;97440.63;;;29.01;34.55
4814;BME280;15375;48.540;9.268;2023-07-13T12:29:59;97453.59;;;28.27;35.29
4814;BME280;15375;48.540;9.268;2023-07-13T12:32:26;97467.69;;;28.09;35.27
4814;BME280;15375;48.540;9.268;2023-07-13T12:34:53;97466.28;;;28.66;35.54
4814;BME280;15375;48.540;9.268;2023-07-13T12:37:19;97461.47;;;29.05;37.12
4814;BME280;15375;48.540;9.268;2023-07-13T12:39:46;97458.78;;;28.05;38.29
4814;BME280;15375;48.540;9.268;2023-07-13T12:42:26;97466.91;;;28.08;39.18
4814;BME280;15375;48.540;9.268;2023-07-13T12:47:44;97463.09;;;28.88;33.13
4814;BME280;15375;48.540;9.268;2023-07-13T12:50:20;97454.78;;;29.08;35.46
4814;BME280;15375;48.540;9.268;2023-07-13T12:52:54;97458.72;;;28.61;34.27
4814;BME280;15375;48.540;9.268;2023-07-13T12:55:20;97445.88;;;28.33;35.31
4814;BME280;15375;48.540;9.268;2023-07-13T12:57:54;97438.13;;;28.39;33.14
4814;BME280;15375;48.540;9.268;2023-07-13T13:00:30;97471.56;;;28.37;36.30
4814;BME280;15375;48.540;9.268;2023-07-13T13:03:02;97449.19;;;29.08;35.62
4814;BME280;15375;48.540;9.268;2023-07-13T13:05:29;97441.53;;;29.35;34.92
4814;BME280;15375;48.540;9.268;2023-07-13T13:07:55;97425.91;;;28.69;34.56
4814;BME280;15375;48.540;9.268;2023-07-13T13:10:21;97453.47;;;28.83;35.33
4814;BME280;15375;48.540;9.268;2023-07-13T13:12:46;97440.72;;;28.69;35.02
4814;BME280;15375;48.540;9.268;2023-07-13T13:15:13;97451.22;;;28.95;36.35
4814;BME280;15375;48.540;9.268;2023-07-13T13:17:38;97425.84;;;29.14;33.57
4814;BME280;15375;48.540;9.268;2023-07-13T13:20:19;97451.72;;;28.80;34.95
4814;BME280;15375;48.540;9.268;2023-07-13T13:22:45;97416.00;;;28.94;35.64
4814;BME280;15375;48.540;9.268;2023-07-13T13:25:11;97437.19;;;29.60;33.92
4814;BME280;15375;48.540;9.268;2023-07-13T13:27:39;97441.84;;;29.58;34.16
4814;BME280;15375;48.540;9.268;2023-07-13T13:30:10;97445.53;;;29.53;32.93
4814;BME280;15375;48.540;9.268;2023-07-13T13:32:39;97400.78;;;28.76;33.69
4814;BME280;15375;48.540;9.268;2023-07-13T13:35:05;97422.00;;;28.59;34.67
4814;BME280;15375;48.540;9.268;2023-07-13T13:37:31;97402.81;;;28.31;35.98
4814;BME280;15375;48.540;9.268;2023-07-13T13:39:57;97401.78;;;28.60;34.85
4814;BME280;15375;48.540;9.268;2023-07-13T13:42:22;97423.38;;;29.36;35.71
4814;BME280;15375;48.540;9.268;2023-07-13T13:44:50;97417.31;;;29.45;34.21
4814;BME280;15375;48.540;9.268;2023-07-13T13:47:35;97393.75;;;28.83;32.39
4814;BME280;15375;48.540;9.268;2023-07-13T13:50:13;97430.88;;;28.31;36.62
4814;BME280;15375;48.540;9.268;2023-07-13T13:52:40;97420.19;;;28.29;35.59